sensor_id;sensor_type;location;lat;lon;timestamp;P1;durP1;ratioP1;P2;durP2;ratioP2
56806;SDS011;42687;42.524;12.052;2023-04-19T00:00:27;4.15;;;2.80;;
56806;SDS011;42687;42.524;12.052;2023-04-19T00:02:53;5.80;;;2.92;;
56806;SDS011;42687;42.524;12.052;2023-04-19T00:05:20;4.18;;;2.20;;
56806;SDS011;42687;42.524;12.052;2023-04-19T00:07:49;3.42;;;1.70;;
56806;SDS011;42687;42.524;12.052;2023-04-19T00:10:15;4.20;;;2.28;;
56806;SDS011;42687;42.524;12.052;2023-04-19T00:12:41;2.95;;;1.83;;
56806;SDS011;42687;42.524;12.052;2023-04-19T00:15:06;3.80;;;2.47;;
56806;SDS011;42687;42.524;12.052;2023-04-19T00:17:33;3.53;;;2.22;;
56806;SDS011;42687;42.524;12.052;2023-04-19T00:19:59;3.63;;;2.25;;
56806;SDS011;42687;42.524;12.052;2023-04-19T00:22:25;5.28;;;3.72;;
56806;SDS011;42687;42.524;12.052;2023-04-19T00:24:51;3.92;;;1.85;;
56806;SDS011;42687;42.524;12.052;2023-04-19T00:27:17;6.28;;;2.05;;
56806;SDS011;42687;42.524;12.052;2023-04-19T00:29:43;3.67;;;2.65;;
56806;SDS011;42687;42.524;12.052;2023-04-19T00:32:09;2.72;;;1.33;;
56806;SDS011;42687;42.524;12.052;2023-04-19T00:34:35;3.10;;;2.67;;
56806;SDS011;42687;42.524;12.052;2023-04-19T00:37:01;3.38;;;1.92;;
56806;SDS011;42687;42.524;12.052;2023-04-19T00:39:29;5.20;;;2.28;;
56806;SDS011;42687;42.524;12.052;2023-04-19T00:41:55;5.93;;;3.13;;
56806;SDS011;42687;42.524;12.052;2023-04-19T00:44:24;3.65;;;2.50;;
56806;SDS011;42687;42.524;12.052;2023-04-19T00:46:49;4.97;;;2.67;;
56806;SDS011;42687;42.524;12.052;2023-04-19T00:49:19;4.10;;;1.70;;
56806;SDS011;42687;42.524;12.052;2023-04-19T00:51:46;1.95;;;1.63;;
56806;SDS011;42687;42.524;12.052;2023-04-19T00:54:12;3.70;;;1.58;;
56806;SDS011;42687;42.524;12.052;2023-04-19T00:56:39;4.72;;;2.17;;
56806;SDS011;42687;42.524;12.052;2023-04-19T00:59:05;5.75;;;1.70;;
56806;SDS011;42687;42.524;12.052;2023-04-19T01:01:34;3.58;;;1.40;;
56806;SDS011;42687;42.524;12.052;2023-04-19T01:04:00;2.60;;;1.58;;
56806;SDS011;42687;42.524;12.052;2023-04-19T01:06:27;2.80;;;1.88;;
56806;SDS011;42687;42.524;12.052;2023-04-19T01:08:54;2.60;;;1.70;;
56806;SDS011;42687;42.524;12.052;2023-04-19T01:11:21;4.25;;;1.88;;
56806;SDS011;42687;42.524;12.052;2023-04-19T01:13:47;3.95;;;1.80;;
56806;SDS011;42687;42.524;12.052;2023-04-19T01:16:13;1.92;;;1.70;;
56806;SDS011;42687;42.524;12.052;2023-04-19T01:18:38;2.90;;;2.50;;
56806;SDS011;42687;42.524;12.052;2023-04-19T01:21:05;3.03;;;1.73;;
56806;SDS011;42687;42.524;12.052;2023-04-19T01:23:32;2.70;;;1.55;;
56806;SDS011;42687;42.524;12.052;2023-04-19T01:25:58;4.38;;;1.90;;
56806;SDS011;42687;42.524;12.052;2023-04-19T01:28:26;4.97;;;1.80;;
56806;SDS011;42687;42.524;12.052;2023-04-19T01:30:51;2.85;;;1.83;;
56806;SDS011;42687;42.524;12.052;2023-04-19T01:33:18;3.53;;;1.80;;
56806;SDS011;42687;42.524;12.052;2023-04-19T01:35:45;3.47;;;2.10;;
56806;SDS011;42687;42.524;12.052;2023-04-19T01:38:12;4.13;;;2.10;;
56806;SDS011;42687;42.524;12.052;2023-04-19T01:40:38;4.45;;;2.30;;
56806;SDS011;42687;42.524;12.052;2023-04-19T01:43:05;2.33;;;1.63;;
56806;SDS011;42687;42.524;12.052;2023-04-19T01:45:31;4.47;;;2.65;;
56806;SDS011;42687;42.524;12.052;2023-04-19T01:47:58;3.25;;;1.92;;
56806;SDS011;42687;42.524;12.052;2023-04-19T01:50:25;3.85;;;1.75;;
56806;SDS011;42687;42.524;12.052;2023-04-19T01:52:51;4.50;;;2.38;;
56806;SDS011;42687;42.524;12.052;2023-04-19T01:55:17;7.90;;;2.72;;
56806;SDS011;42687;42.524;12.052;2023-04-19T01:57:43;3.80;;;2.05;;
56806;SDS011;42687;42.524;12.052;2023-04-19T02:00:10;3.45;;;2.70;;
56806;SDS011;42687;42.524;12.052;2023-04-19T02:02:36;3.58;;;1.95;;
56806;SDS011;42687;42.524;12.052;2023-04-19T02:05:05;4.30;;;2.20;;
56806;SDS011;42687;42.524;12.052;2023-04-19T02:07:31;5.07;;;2.70;;
56806;SDS011;42687;42.524;12.052;2023-04-19T02:09:57;5.88;;;3.65;;
56806;SDS011;42687;42.524;12.052;2023-04-19T02:12:25;3.75;;;2.25;;
56806;SDS011;42687;42.524;12.052;2023-04-19T02:14:53;2.22;;;1.65;;
56806;SDS011;42687;42.524;12.052;2023-04-19T02:17:23;3.63;;;1.92;;
56806;SDS011;42687;42.524;12.052;2023-04-19T02:19:50;7.55;;;2.88;;
56806;SDS011;42687;42.524;12.052;2023-04-19T02:22:16;3.83;;;1.77;;
56806;SDS011;42687;42.524;12.052;2023-04-19T02:24:43;2.58;;;1.92;;
56806;SDS011;42687;42.524;12.052;2023-04-19T02:27:09;3.45;;;2.40;;
56806;SDS011;42687;42.524;12.052;2023-04-19T02:29:36;3.63;;;3.13;;
56806;SDS011;42687;42.524;12.052;2023-04-19T02:32:02;2.78;;;1.55;;
56806;SDS011;42687;42.524;12.052;2023-04-19T02:34:30;3.95;;;1.50;;
56806;SDS011;42687;42.524;12.052;2023-04-19T02:36:56;2.25;;;1.60;;
56806;SDS011;42687;42.524;12.052;2023-04-19T02:39:22;3.45;;;2.17;;
56806;SDS011;42687;42.524;12.052;2023-04-19T02:41:48;2.90;;;1.85;;
56806;SDS011;42687;42.524;12.052;2023-04-19T02:44:14;4.18;;;1.52;;
56806;SDS011;42687;42.524;12.052;2023-04-19T02:46:40;3.97;;;2.05;;
56806;SDS011;42687;42.524;12.052;2023-04-19T02:49:06;3.83;;;1.67;;
56806;SDS011;42687;42.524;12.052;2023-04-19T02:51:33;4.38;;;2.15;;
56806;SDS011;42687;42.524;12.052;2023-04-19T02:53:59;3.50;;;2.17;;
56806;SDS011;42687;42.524;12.052;2023-04-19T02:56:24;3.95;;;2.10;;
56806;SDS011;42687;42.524;12.052;2023-04-19T02:58:51;3.15;;;1.77;;
56806;SDS011;42687;42.524;12.052;2023-04-19T03:01:18;7.20;;;2.10;;
56806;SDS011;42687;42.524;12.052;2023-04-19T03:03:44;3.03;;;1.58;;
56806;SDS011;42687;42.524;12.052;2023-04-19T03:06:09;3.05;;;1.98;;
56806;SDS011;42687;42.524;12.052;2023-04-19T03:08:35;2.20;;;1.58;;
56806;SDS011;42687;42.524;12.052;2023-04-19T03:11:01;3.45;;;2.22;;
56806;SDS011;42687;42.524;12.052;2023-04-19T03:13:27;3.45;;;1.98;;
56806;SDS011;42687;42.524;12.052;2023-04-19T03:15:53;1.38;;;1.15;;
56806;SDS011;42687;42.524;12.052;2023-04-19T03:18:18;3.00;;;2.05;;
56806;SDS011;42687;42.524;12.052;2023-04-19T03:20:45;2.13;;;1.45;;
56806;SDS011;42687;42.524;12.052;2023-04-19T03:23:10;4.35;;;2.00;;
56806;SDS011;42687;42.524;12.052;2023-04-19T03:25:36;4.38;;;2.58;;
56806;SDS011;42687;42.524;12.052;2023-04-19T03:28:02;6.50;;;2.08;;
56806;SDS011;42687;42.524;12.052;2023-04-19T03:30:27;4.72;;;2.83;;
56806;SDS011;42687;42.524;12.052;2023-04-19T03:32:53;3.65;;;2.00;;
56806;SDS011;42687;42.524;12.052;2023-04-19T03:35:19;3.83;;;1.75;;
56806;SDS011;42687;42.524;12.052;2023-04-19T03:37:45;4.53;;;1.95;;
56806;SDS011;42687;42.524;12.052;2023-04-19T03:40:11;2.53;;;1.38;;
56806;SDS011;42687;42.524;12.052;2023-04-19T03:42:36;8.43;;;2.50;;
56806;SDS011;42687;42.524;12.052;2023-04-19T03:45:02;3.30;;;1.92;;
56806;SDS011;42687;42.524;12.052;2023-04-19T03:47:28;3.53;;;2.22;;
56806;SDS011;42687;42.524;12.052;2023-04-19T03:49:54;4.00;;;2.53;;
56806;SDS011;42687;42.524;12.052;2023-04-19T03:52:20;2.47;;;1.80;;
56806;SDS011;42687;42.524;12.052;2023-04-19T03:54:45;4.53;;;1.73;;
56806;SDS011;42687;42.524;12.052;2023-04-19T03:57:12;4.22;;;2.58;;
56806;SDS011;42687;42.524;12.052;2023-04-19T03:59:39;3.00;;;1.85;;
56806;SDS011;42687;42.524;12.052;2023-04-19T04:02:05;2.92;;;1.80;;
56806;SDS011;42687;42.524;12.052;2023-04-19T04:04:31;2.88;;;1.65;;
56806;SDS011;42687;42.524;12.052;2023-04-19T04:06:57;5.90;;;1.90;;
56806;SDS011;42687;42.524;12.052;2023-04-19T04:09:23;5.53;;;3.20;;
56806;SDS011;42687;42.524;12.052;2023-04-19T04:11:48;3.40;;;2.03;;
56806;SDS011;42687;42.524;12.052;2023-04-19T04:14:14;2.47;;;1.35;;
56806;SDS011;42687;42.524;12.052;2023-04-19T04:16:40;5.07;;;2.45;;
56806;SDS011;42687;42.524;12.052;2023-04-19T04:19:05;4.15;;;2.22;;
56806;SDS011;42687;42.524;12.052;2023-04-19T04:21:32;3.58;;;2.03;;
56806;SDS011;42687;42.524;12.052;2023-04-19T04:23:57;3.22;;;2.38;;
56806;SDS011;42687;42.524;12.052;2023-04-19T04:26:26;3.78;;;1.63;;
56806;SDS011;42687;42.524;12.052;2023-04-19T04:28:55;3.97;;;1.88;;
56806;SDS011;42687;42.524;12.052;2023-04-19T04:31:21;4.35;;;2.47;;
56806;SDS011;42687;42.524;12.052;2023-04-19T04:33:48;4.63;;;2.50;;
56806;SDS011;42687;42.524;12.052;2023-04-19T04:36:13;4.60;;;2.80;;
56806;SDS011;42687;42.524;12.052;2023-04-19T04:38:39;4.32;;;2.78;;
56806;SDS011;42687;42.524;12.052;2023-04-19T04:41:05;3.42;;;2.28;;
56806;SDS011;42687;42.524;12.052;2023-04-19T04:43:31;3.28;;;2.22;;
56806;SDS011;42687;42.524;12.052;2023-04-19T04:45:57;3.40;;;2.00;;
56806;SDS011;42687;42.524;12.052;2023-04-19T04:48:23;3.33;;;2.30;;
56806;SDS011;42687;42.524;12.052;2023-04-19T04:50:49;3.80;;;2.38;;
56806;SDS011;42687;42.524;12.052;2023-04-19T04:53:15;3.00;;;1.73;;
56806;SDS011;42687;42.524;12.052;2023-04-19T04:55:41;4.68;;;2.85;;
56806;SDS011;42687;42.524;12.052;2023-04-19T04:58:06;5.75;;;2.85;;
56806;SDS011;42687;42.524;12.052;2023-04-19T05:00:32;3.67;;;2.13;;
56806;SDS011;42687;42.524;12.052;2023-04-19T05:02:58;4.32;;;1.98;;
56806;SDS011;42687;42.524;12.052;2023-04-19T05:05:24;13.77;;;3.13;;
56806;SDS011;42687;42.524;12.052;2023-04-19T05:07:50;4.05;;;2.28;;
56806;SDS011;42687;42.524;12.052;2023-04-19T05:10:16;3.83;;;2.22;;
56806;SDS011;42687;42.524;12.052;2023-04-19T05:12:42;3.97;;;1.95;;
56806;SDS011;42687;42.524;12.052;2023-04-19T05:15:07;3.72;;;2.15;;
56806;SDS011;42687;42.524;12.052;2023-04-19T05:17:33;2.30;;;1.63;;
56806;SDS011;42687;42.524;12.052;2023-04-19T05:19:59;3.88;;;2.15;;
56806;SDS011;42687;42.524;12.052;2023-04-19T05:22:25;3.22;;;2.15;;
56806;SDS011;42687;42.524;12.052;2023-04-19T05:24:51;3.60;;;2.10;;
56806;SDS011;42687;42.524;12.052;2023-04-19T05:27:17;4.32;;;2.47;;
56806;SDS011;42687;42.524;12.052;2023-04-19T05:29:43;3.92;;;2.63;;
56806;SDS011;42687;42.524;12.052;2023-04-19T05:32:08;6.75;;;2.63;;
56806;SDS011;42687;42.524;12.052;2023-04-19T05:34:35;5.80;;;2.53;;
56806;SDS011;42687;42.524;12.052;2023-04-19T05:37:01;5.88;;;2.05;;
56806;SDS011;42687;42.524;12.052;2023-04-19T05:39:27;4.97;;;2.28;;
56806;SDS011;42687;42.524;12.052;2023-04-19T05:41:53;5.50;;;3.28;;
56806;SDS011;42687;42.524;12.052;2023-04-19T05:44:19;2.78;;;1.73;;
56806;SDS011;42687;42.524;12.052;2023-04-19T05:46:45;6.57;;;2.90;;
56806;SDS011;42687;42.524;12.052;2023-04-19T05:49:10;4.47;;;2.30;;
56806;SDS011;42687;42.524;12.052;2023-04-19T05:51:36;3.03;;;1.95;;
56806;SDS011;42687;42.524;12.052;2023-04-19T05:54:02;3.90;;;2.08;;
56806;SDS011;42687;42.524;12.052;2023-04-19T05:56:28;3.83;;;2.00;;
56806;SDS011;42687;42.524;12.052;2023-04-19T05:58:54;4.40;;;1.65;;
56806;SDS011;42687;42.524;12.052;2023-04-19T06:01:20;5.00;;;2.70;;
56806;SDS011;42687;42.524;12.052;2023-04-19T06:03:47;3.53;;;1.90;;
56806;SDS011;42687;42.524;12.052;2023-04-19T06:06:17;9.02;;;2.97;;
56806;SDS011;42687;42.524;12.052;2023-04-19T06:08:43;2.88;;;1.55;;
56806;SDS011;42687;42.524;12.052;2023-04-19T06:11:09;3.42;;;1.75;;
56806;SDS011;42687;42.524;12.052;2023-04-19T06:13:35;7.07;;;2.75;;
56806;SDS011;42687;42.524;12.052;2023-04-19T06:16:01;5.72;;;3.10;;
56806;SDS011;42687;42.524;12.052;2023-04-19T06:18:28;2.88;;;1.98;;
56806;SDS011;42687;42.524;12.052;2023-04-19T06:20:53;1.95;;;1.45;;
56806;SDS011;42687;42.524;12.052;2023-04-19T06:23:19;2.90;;;2.15;;
56806;SDS011;42687;42.524;12.052;2023-04-19T06:25:45;1.83;;;1.55;;
56806;SDS011;42687;42.524;12.052;2023-04-19T06:28:13;1.48;;;1.20;;
56806;SDS011;42687;42.524;12.052;2023-04-19T06:30:39;9.18;;;2.72;;
56806;SDS011;42687;42.524;12.052;2023-04-19T06:33:05;2.03;;;1.38;;
56806;SDS011;42687;42.524;12.052;2023-04-19T06:35:31;3.58;;;2.15;;
56806;SDS011;42687;42.524;12.052;2023-04-19T06:37:57;2.30;;;1.50;;
56806;SDS011;42687;42.524;12.052;2023-04-19T06:40:24;2.55;;;1.30;;
56806;SDS011;42687;42.524;12.052;2023-04-19T06:42:50;4.40;;;1.67;;
56806;SDS011;42687;42.524;12.052;2023-04-19T06:45:17;2.17;;;1.52;;
56806;SDS011;42687;42.524;12.052;2023-04-19T06:47:43;1.65;;;1.30;;
56806;SDS011;42687;42.524;12.052;2023-04-19T06:50:09;2.65;;;1.48;;
56806;SDS011;42687;42.524;12.052;2023-04-19T06:52:35;1.92;;;1.13;;
56806;SDS011;42687;42.524;12.052;2023-04-19T06:55:01;3.22;;;2.22;;
56806;SDS011;42687;42.524;12.052;2023-04-19T06:57:27;2.72;;;1.60;;
56806;SDS011;42687;42.524;12.052;2023-04-19T06:59:54;4.15;;;2.20;;
56806;SDS011;42687;42.524;12.052;2023-04-19T07:02:20;3.13;;;1.13;;
56806;SDS011;42687;42.524;12.052;2023-04-19T07:04:45;2.13;;;1.40;;
56806;SDS011;42687;42.524;12.052;2023-04-19T07:07:12;3.45;;;1.13;;
56806;SDS011;42687;42.524;12.052;2023-04-19T07:09:38;1.95;;;1.55;;
56806;SDS011;42687;42.524;12.052;2023-04-19T07:12:04;3.53;;;1.10;;
56806;SDS011;42687;42.524;12.052;2023-04-19T07:14:30;1.85;;;1.50;;
56806;SDS011;42687;42.524;12.052;2023-04-19T07:16:56;2.55;;;1.70;;
56806;SDS011;42687;42.524;12.052;2023-04-19T07:19:22;2.42;;;1.65;;
56806;SDS011;42687;42.524;12.052;2023-04-19T07:21:48;1.30;;;1.02;;
56806;SDS011;42687;42.524;12.052;2023-04-19T07:24:15;2.08;;;1.17;;
56806;SDS011;42687;42.524;12.052;2023-04-19T07:26:41;1.90;;;1.42;;
56806;SDS011;42687;42.524;12.052;2023-04-19T07:29:07;1.83;;;1.30;;
56806;SDS011;42687;42.524;12.052;2023-04-19T07:31:32;2.75;;;1.90;;
56806;SDS011;42687;42.524;12.052;2023-04-19T07:33:58;1.48;;;1.20;;
56806;SDS011;42687;42.524;12.052;2023-04-19T07:36:24;1.98;;;1.75;;
56806;SDS011;42687;42.524;12.052;2023-04-19T07:38:50;3.65;;;1.80;;
56806;SDS011;42687;42.524;12.052;2023-04-19T07:41:16;1.58;;;1.27;;
56806;SDS011;42687;42.524;12.052;2023-04-19T07:43:42;2.42;;;1.17;;
56806;SDS011;42687;42.524;12.052;2023-04-19T07:46:09;2.58;;;1.73;;
56806;SDS011;42687;42.524;12.052;2023-04-19T07:48:35;3.90;;;2.72;;
56806;SDS011;42687;42.524;12.052;2023-04-19T07:51:11;3.33;;;2.00;;
56806;SDS011;42687;42.524;12.052;2023-04-19T07:53:43;1.88;;;1.33;;
56806;SDS011;42687;42.524;12.052;2023-04-19T07:56:10;2.38;;;1.67;;
56806;SDS011;42687;42.524;12.052;2023-04-19T07:58:36;2.30;;;1.55;;
56806;SDS011;42687;42.524;12.052;2023-04-19T08:01:03;2.33;;;1.20;;
56806;SDS011;42687;42.524;12.052;2023-04-19T08:03:32;1.23;;;0.93;;
56806;SDS011;42687;42.524;12.052;2023-04-19T08:06:05;1.67;;;1.20;;
56806;SDS011;42687;42.524;12.052;2023-04-19T08:08:33;2.40;;;0.90;;
56806;SDS011;42687;42.524;12.052;2023-04-19T08:11:00;1.98;;;1.48;;
56806;SDS011;42687;42.524;12.052;2023-04-19T08:13:27;1.17;;;0.70;;
56806;SDS011;42687;42.524;12.052;2023-04-19T08:15:53;1.25;;;1.10;;
56806;SDS011;42687;42.524;12.052;2023-04-19T08:18:19;2.17;;;1.63;;
56806;SDS011;42687;42.524;12.052;2023-04-19T08:20:45;1.55;;;1.30;;
56806;SDS011;42687;42.524;12.052;2023-04-19T08:23:11;1.40;;;1.30;;
56806;SDS011;42687;42.524;12.052;2023-04-19T08:25:37;1.45;;;1.15;;
56806;SDS011;42687;42.524;12.052;2023-04-19T08:28:03;1.63;;;1.25;;
56806;SDS011;42687;42.524;12.052;2023-04-19T08:30:29;2.35;;;1.73;;
56806;SDS011;42687;42.524;12.052;2023-04-19T08:32:56;2.80;;;1.50;;
56806;SDS011;42687;42.524;12.052;2023-04-19T08:35:22;3.17;;;2.20;;
56806;SDS011;42687;42.524;12.052;2023-04-19T08:37:47;4.03;;;2.00;;
56806;SDS011;42687;42.524;12.052;2023-04-19T08:40:14;2.42;;;1.83;;
56806;SDS011;42687;42.524;12.052;2023-04-19T08:42:41;1.92;;;1.35;;
56806;SDS011;42687;42.524;12.052;2023-04-19T08:45:07;1.67;;;1.40;;
56806;SDS011;42687;42.524;12.052;2023-04-19T08:47:35;1.52;;;1.30;;
56806;SDS011;42687;42.524;12.052;2023-04-19T08:50:05;2.70;;;2.00;;
56806;SDS011;42687;42.524;12.052;2023-04-19T08:52:32;2.33;;;1.65;;
56806;SDS011;42687;42.524;12.052;2023-04-19T08:55:00;2.00;;;1.52;;
56806;SDS011;42687;42.524;12.052;2023-04-19T08:57:31;2.50;;;1.83;;
56806;SDS011;42687;42.524;12.052;2023-04-19T08:59:57;2.40;;;1.85;;
56806;SDS011;42687;42.524;12.052;2023-04-19T09:02:25;3.03;;;1.65;;
56806;SDS011;42687;42.524;12.052;2023-04-19T09:04:50;1.60;;;1.15;;
56806;SDS011;42687;42.524;12.052;2023-04-19T09:07:23;2.47;;;1.80;;
56806;SDS011;42687;42.524;12.052;2023-04-19T09:10:07;3.10;;;2.03;;
56806;SDS011;42687;42.524;12.052;2023-04-19T09:12:38;2.95;;;1.77;;
56806;SDS011;42687;42.524;12.052;2023-04-19T09:15:06;3.95;;;2.03;;
56806;SDS011;42687;42.524;12.052;2023-04-19T09:17:36;2.78;;;1.88;;
56806;SDS011;42687;42.524;12.052;2023-04-19T09:22:31;2.13;;;1.48;;
56806;SDS011;42687;42.524;12.052;2023-04-19T09:24:58;2.53;;;1.77;;
56806;SDS011;42687;42.524;12.052;2023-04-19T09:27:26;2.40;;;1.60;;
56806;SDS011;42687;42.524;12.052;2023-04-19T09:29:53;2.47;;;1.55;;
56806;SDS011;42687;42.524;12.052;2023-04-19T09:32:20;3.85;;;1.85;;
56806;SDS011;42687;42.524;12.052;2023-04-19T09:34:50;4.05;;;1.70;;
56806;SDS011;42687;42.524;12.052;2023-04-19T09:37:20;1.65;;;1.48;;
56806;SDS011;42687;42.524;12.052;2023-04-19T09:39:46;3.78;;;1.77;;
56806;SDS011;42687;42.524;12.052;2023-04-19T09:42:12;2.47;;;1.65;;
56806;SDS011;42687;42.524;12.052;2023-04-19T09:44:38;2.08;;;1.45;;
56806;SDS011;42687;42.524;12.052;2023-04-19T09:47:25;4.03;;;2.20;;
56806;SDS011;42687;42.524;12.052;2023-04-19T09:50:07;3.75;;;1.77;;
56806;SDS011;42687;42.524;12.052;2023-04-19T09:52:34;2.97;;;2.20;;
56806;SDS011;42687;42.524;12.052;2023-04-19T09:55:00;3.33;;;2.22;;
56806;SDS011;42687;42.524;12.052;2023-04-19T09:57:29;2.20;;;1.60;;
56806;SDS011;42687;42.524;12.052;2023-04-19T09:59:57;4.78;;;2.70;;
56806;SDS011;42687;42.524;12.052;2023-04-19T10:02:23;3.38;;;2.20;;
56806;SDS011;42687;42.524;12.052;2023-04-19T10:04:50;4.05;;;2.60;;
56806;SDS011;42687;42.524;12.052;2023-04-19T10:07:20;3.50;;;2.03;;
56806;SDS011;42687;42.524;12.052;2023-04-19T10:09:46;4.03;;;2.63;;
56806;SDS011;42687;42.524;12.052;2023-04-19T10:12:14;3.50;;;2.25;;
56806;SDS011;42687;42.524;12.052;2023-04-19T10:14:40;3.78;;;2.75;;
56806;SDS011;42687;42.524;12.052;2023-04-19T10:17:07;4.03;;;2.83;;
56806;SDS011;42687;42.524;12.052;2023-04-19T10:19:34;4.38;;;3.22;;
56806;SDS011;42687;42.524;12.052;2023-04-19T10:22:01;4.05;;;2.97;;
56806;SDS011;42687;42.524;12.052;2023-04-19T10:24:32;7.18;;;3.63;;
56806;SDS011;42687;42.524;12.052;2023-04-19T10:27:04;5.82;;;3.40;;
56806;SDS011;42687;42.524;12.052;2023-04-19T10:32:16;4.65;;;2.72;;
56806;SDS011;42687;42.524;12.052;2023-04-19T10:34:42;4.47;;;2.33;;
56806;SDS011;42687;42.524;12.052;2023-04-19T10:37:09;5.53;;;2.78;;
56806;SDS011;42687;42.524;12.052;2023-04-19T10:39:44;4.13;;;2.70;;
56806;SDS011;42687;42.524;12.052;2023-04-19T10:42:10;4.43;;;3.05;;
56806;SDS011;42687;42.524;12.052;2023-04-19T10:44:37;4.97;;;2.85;;
56806;SDS011;42687;42.524;12.052;2023-04-19T10:47:04;3.55;;;2.47;;
56806;SDS011;42687;42.524;12.052;2023-04-19T10:49:30;3.55;;;2.40;;
56806;SDS011;42687;42.524;12.052;2023-04-19T10:51:56;5.60;;;2.90;;
56806;SDS011;42687;42.524;12.052;2023-04-19T10:54:28;4.57;;;2.58;;
56806;SDS011;42687;42.524;12.052;2023-04-19T10:57:05;4.75;;;2.58;;
56806;SDS011;42687;42.524;12.052;2023-04-19T10:59:35;4.38;;;2.47;;
56806;SDS011;42687;42.524;12.052;2023-04-19T11:02:02;3.53;;;2.08;;
56806;SDS011;42687;42.524;12.052;2023-04-19T11:07:05;3.22;;;2.20;;
56806;SDS011;42687;42.524;12.052;2023-04-19T11:09:35;4.07;;;2.78;;
56806;SDS011;42687;42.524;12.052;2023-04-19T11:12:10;5.18;;;2.30;;
56806;SDS011;42687;42.524;12.052;2023-04-19T11:14:44;3.63;;;2.90;;
56806;SDS011;42687;42.524;12.052;2023-04-19T11:17:15;3.78;;;2.92;;
56806;SDS011;42687;42.524;12.052;2023-04-19T11:22:25;4.13;;;2.38;;
56806;SDS011;42687;42.524;12.052;2023-04-19T11:27:42;5.85;;;3.05;;
56806;SDS011;42687;42.524;12.052;2023-04-19T11:30:13;4.97;;;3.53;;
56806;SDS011;42687;42.524;12.052;2023-04-19T11:32:45;3.88;;;2.60;;
56806;SDS011;42687;42.524;12.052;2023-04-19T11:35:12;4.15;;;2.60;;
56806;SDS011;42687;42.524;12.052;2023-04-19T11:37:39;4.20;;;3.15;;
56806;SDS011;42687;42.524;12.052;2023-04-19T11:40:05;2.60;;;2.17;;
56806;SDS011;42687;42.524;12.052;2023-04-19T11:42:32;4.75;;;3.47;;
56806;SDS011;42687;42.524;12.052;2023-04-19T11:44:58;3.70;;;2.30;;
56806;SDS011;42687;42.524;12.052;2023-04-19T11:47:27;2.83;;;2.10;;
56806;SDS011;42687;42.524;12.052;2023-04-19T11:49:55;4.68;;;2.80;;
56806;SDS011;42687;42.524;12.052;2023-04-19T11:52:22;3.83;;;2.10;;
56806;SDS011;42687;42.524;12.052;2023-04-19T11:54:50;3.88;;;2.97;;
56806;SDS011;42687;42.524;12.052;2023-04-19T11:57:30;5.95;;;4.55;;
56806;SDS011;42687;42.524;12.052;2023-04-19T12:00:08;4.82;;;3.28;;
56806;SDS011;42687;42.524;12.052;2023-04-19T12:02:38;7.47;;;4.88;;
56806;SDS011;42687;42.524;12.052;2023-04-19T12:05:08;4.38;;;2.28;;
56806;SDS011;42687;42.524;12.052;2023-04-19T12:07:35;4.75;;;3.83;;
56806;SDS011;42687;42.524;12.052;2023-04-19T12:10:07;8.43;;;5.32;;
56806;SDS011;42687;42.524;12.052;2023-04-19T12:12:35;4.93;;;3.15;;
56806;SDS011;42687;42.524;12.052;2023-04-19T12:15:01;3.45;;;2.20;;
56806;SDS011;42687;42.524;12.052;2023-04-19T12:17:27;5.18;;;2.88;;
56806;SDS011;42687;42.524;12.052;2023-04-19T12:19:53;9.10;;;6.50;;
56806;SDS011;42687;42.524;12.052;2023-04-19T12:22:18;7.88;;;5.72;;
56806;SDS011;42687;42.524;12.052;2023-04-19T12:24:45;6.88;;;4.00;;
56806;SDS011;42687;42.524;12.052;2023-04-19T12:27:11;2.85;;;2.35;;
56806;SDS011;42687;42.524;12.052;2023-04-19T12:29:37;2.67;;;2.05;;
56806;SDS011;42687;42.524;12.052;2023-04-19T12:32:03;5.38;;;3.33;;
56806;SDS011;42687;42.524;12.052;2023-04-19T12:34:30;5.80;;;3.25;;
56806;SDS011;42687;42.524;12.052;2023-04-19T12:36:56;6.22;;;3.90;;
56806;SDS011;42687;42.524;12.052;2023-04-19T12:39:22;3.78;;;2.10;;
56806;SDS011;42687;42.524;12.052;2023-04-19T12:41:48;6.13;;;3.47;;
56806;SDS011;42687;42.524;12.052;2023-04-19T12:44:14;5.85;;;3.03;;
56806;SDS011;42687;42.524;12.052;2023-04-19T12:46:40;6.72;;;4.22;;
56806;SDS011;42687;42.524;12.052;2023-04-19T12:49:06;6.00;;;3.75;;
56806;SDS011;42687;42.524;12.052;2023-04-19T12:51:32;5.38;;;3.22;;
56806;SDS011;42687;42.524;12.052;2023-04-19T12:53:57;5.70;;;3.90;;
56806;SDS011;42687;42.524;12.052;2023-04-19T12:56:24;4.97;;;3.05;;
56806;SDS011;42687;42.524;12.052;2023-04-19T12:58:50;6.38;;;3.33;;
56806;SDS011;42687;42.524;12.052;2023-04-19T13:01:17;4.72;;;2.95;;
56806;SDS011;42687;42.524;12.052;2023-04-19T13:03:42;4.82;;;2.45;;
56806;SDS011;42687;42.524;12.052;2023-04-19T13:06:08;5.10;;;2.92;;
56806;SDS011;42687;42.524;12.052;2023-04-19T13:08:37;5.10;;;3.08;;
56806;SDS011;42687;42.524;12.052;2023-04-19T13:11:03;4.35;;;3.30;;
56806;SDS011;42687;42.524;12.052;2023-04-19T13:13:29;4.30;;;2.95;;
56806;SDS011;42687;42.524;12.052;2023-04-19T13:15:54;4.93;;;3.00;;
56806;SDS011;42687;42.524;12.052;2023-04-19T13:18:20;8.43;;;3.53;;
56806;SDS011;42687;42.524;12.052;2023-04-19T13:20:46;3.97;;;2.78;;
56806;SDS011;42687;42.524;12.052;2023-04-19T13:23:13;5.18;;;3.13;;
56806;SDS011;42687;42.524;12.052;2023-04-19T13:25:39;7.55;;;4.20;;
56806;SDS011;42687;42.524;12.052;2023-04-19T13:28:04;5.00;;;3.08;;
56806;SDS011;42687;42.524;12.052;2023-04-19T13:30:30;5.95;;;4.18;;
56806;SDS011;42687;42.524;12.052;2023-04-19T13:32:56;6.38;;;3.75;;
56806;SDS011;42687;42.524;12.052;2023-04-19T13:35:22;4.43;;;2.60;;
56806;SDS011;42687;42.524;12.052;2023-04-19T13:37:48;8.30;;;4.32;;
56806;SDS011;42687;42.524;12.052;2023-04-19T13:40:15;7.40;;;3.72;;
56806;SDS011;42687;42.524;12.052;2023-04-19T13:42:41;11.18;;;4.60;;
56806;SDS011;42687;42.524;12.052;2023-04-19T13:45:07;4.55;;;3.40;;
56806;SDS011;42687;42.524;12.052;2023-04-19T13:47:33;6.25;;;4.55;;
56806;SDS011;42687;42.524;12.052;2023-04-19T13:49:59;6.55;;;3.78;;
56806;SDS011;42687;42.524;12.052;2023-04-19T13:52:25;4.40;;;3.10;;
56806;SDS011;42687;42.524;12.052;2023-04-19T13:54:51;5.85;;;4.07;;
56806;SDS011;42687;42.524;12.052;2023-04-19T13:57:17;4.28;;;2.10;;
56806;SDS011;42687;42.524;12.052;2023-04-19T13:59:42;3.58;;;2.72;;
56806;SDS011;42687;42.524;12.052;2023-04-19T14:02:08;6.00;;;3.88;;
56806;SDS011;42687;42.524;12.052;2023-04-19T14:04:34;5.32;;;3.65;;
56806;SDS011;42687;42.524;12.052;2023-04-19T14:06:59;6.72;;;4.55;;
56806;SDS011;42687;42.524;12.052;2023-04-19T14:09:25;4.78;;;3.58;;
56806;SDS011;42687;42.524;12.052;2023-04-19T14:11:51;4.10;;;3.20;;
56806;SDS011;42687;42.524;12.052;2023-04-19T14:14:17;11.13;;;4.30;;
56806;SDS011;42687;42.524;12.052;2023-04-19T14:16:43;5.18;;;3.55;;
56806;SDS011;42687;42.524;12.052;2023-04-19T14:19:08;10.52;;;5.57;;
56806;SDS011;42687;42.524;12.052;2023-04-19T14:21:34;7.22;;;3.88;;
56806;SDS011;42687;42.524;12.052;2023-04-19T14:24:00;5.78;;;3.72;;
56806;SDS011;42687;42.524;12.052;2023-04-19T14:26:26;8.50;;;4.43;;
56806;SDS011;42687;42.524;12.052;2023-04-19T14:28:52;6.15;;;4.63;;
56806;SDS011;42687;42.524;12.052;2023-04-19T14:31:18;13.90;;;8.18;;
56806;SDS011;42687;42.524;12.052;2023-04-19T14:33:43;7.63;;;4.43;;
56806;SDS011;42687;42.524;12.052;2023-04-19T14:36:09;4.47;;;2.80;;
56806;SDS011;42687;42.524;12.052;2023-04-19T14:38:35;6.25;;;3.45;;
56806;SDS011;42687;42.524;12.052;2023-04-19T14:41:01;7.68;;;5.05;;
56806;SDS011;42687;42.524;12.052;2023-04-19T14:43:28;5.93;;;3.13;;